Time;durP1;ratioP1;P1;durP2;ratioP2;P2;SDS_P1;SDS_P2;PMS_P1;PMS_P2;Temp;Humidity;BMP_temperature;BMP_pressure;BME280_temperature;BME280_humidity;BME280_pressure;Samples;Min_cycle;Max_cycle;Signal;HPM_P1;HPM_P2
2023/10/21 00:00:27;;;;;;;1.60;1.50;;;17.60;75.90;18.60;97663.00;;;;5063567;28;20278;-47
2023/10/21 00:02:53;;;;;;;2.60;1.60;;;17.60;75.80;18.60;97661.00;;;;5066636;28;20277;-48
2023/10/21 00:05:19;;;;;;;2.10;1.90;;;17.70;75.80;18.70;97670.00;;;;5069725;28;20185;-48
2023/10/21 00:07:44;;;;;;;2.63;1.80;;;17.70;75.80;18.70;97672.00;;;;5069288;28;20709;-48
2023/10/21 00:10:10;;;;;;;2.60;1.70;;;17.70;75.70;18.70;97667.00;;;;5069324;28;20205;-48
2023/10/21 00:12:36;;;;;;;1.67;1.57;;;17.60;75.50;18.60;97673.00;;;;5060728;28;20248;-48
2023/10/21 00:15:09;;;;;;;2.30;1.83;;;17.60;75.90;18.60;97669.00;;;;5068802;28;20173;-47
2023/10/21 00:17:35;;;;;;;2.00;1.77;;;17.60;75.90;18.60;97674.00;;;;5068086;28;20190;-48
2023/10/21 00:20:03;;;;;;;1.60;1.50;;;17.60;76.00;18.60;97677.00;;;;5069149;28;20252;-47
2023/10/21 00:22:28;;;;;;;1.40;1.30;;;17.60;76.00;18.60;97674.00;;;;5068090;28;20212;-47
2023/10/21 00:24:54;;;;;;;1.57;1.47;;;17.60;76.40;18.50;97678.00;;;;5069160;28;20190;-47
2023/10/21 00:27:20;;;;;;;1.60;1.50;;;17.50;76.60;18.50;97682.00;;;;5069319;28;20181;-47
2023/10/21 00:29:45;;;;;;;2.03;1.40;;;17.50;76.50;18.50;97686.00;;;;5064723;28;20193;-48
2023/10/21 00:32:11;;;;;;;1.80;1.43;;;17.50;76.70;18.50;97683.00;;;;5061285;28;20205;-49
2023/10/21 00:34:39;;;;;;;1.73;1.63;;;17.50;76.70;18.50;97679.00;;;;5081231;28;20214;-48
2023/10/21 00:37:07;;;;;;;1.50;1.40;;;17.50;76.70;18.50;97671.00;;;;5048758;28;20182;-48
2023/10/21 00:39:36;;;;;;;1.70;1.60;;;17.50;76.60;18.50;97685.00;;;;5048699;28;20187;-48
2023/10/21 00:42:03;;;;;;;1.70;1.50;;;17.50;76.60;18.50;97685.00;;;;5067570;28;20228;-47
2023/10/21 00:44:28;;;;;;;1.87;1.43;;;17.60;76.60;18.60;97688.00;;;;5069109;28;20216;-47
2023/10/21 00:46:54;;;;;;;1.43;1.33;;;17.60;76.60;18.60;97690.00;;;;5068974;28;20224;-48
2023/10/21 00:49:20;;;;;;;1.40;1.30;;;17.60;76.70;18.60;97683.00;;;;5062441;28;20853;-47
2023/10/21 00:51:49;;;;;;;1.60;1.50;;;17.60;76.70;18.60;97688.00;;;;5067975;28;20804;-48
2023/10/21 00:54:16;;;;;;;2.50;1.70;;;17.60;76.70;18.60;97700.00;;;;5068992;28;20212;-48
2023/10/21 00:56:42;;;;;;;1.30;1.20;;;17.60;76.80;18.60;97697.00;;;;5068618;28;20181;-48
2023/10/21 00:59:08;;;;;;;1.53;1.30;;;17.60;76.80;18.60;97700.00;;;;5068763;28;20192;-48
2023/10/21 01:01:34;;;;;;;1.60;1.50;;;17.60;76.80;18.50;97700.00;;;;5067499;28;20216;-48
2023/10/21 01:04:01;;;;;;;2.70;1.60;;;17.50;77.30;18.50;97701.00;;;;5068707;28;20189;-47
2023/10/21 01:06:27;;;;;;;1.53;1.43;;;17.50;77.90;18.50;97696.00;;;;5067422;28;20276;-48
2023/10/21 01:08:53;;;;;;;1.60;1.50;;;17.50;78.10;18.40;97700.00;;;;5050379;28;20269;-49
2023/10/21 01:11:19;;;;;;;1.97;1.57;;;17.40;77.90;18.40;97702.00;;;;5066745;28;20229;-47
2023/10/21 01:13:45;;;;;;;2.33;1.53;;;17.40;78.30;18.40;97697.00;;;;5066943;28;20262;-47
2023/10/21 01:16:11;;;;;;;1.60;1.50;;;17.40;78.00;18.40;97701.00;;;;5067325;28;20212;-47
2023/10/21 01:18:38;;;;;;;1.73;1.50;;;17.40;77.90;18.40;97701.00;;;;5069198;28;20181;-48
2023/10/21 01:21:04;;;;;;;1.57;1.47;;;17.40;77.90;18.50;97713.00;;;;5067560;28;20251;-48
2023/10/21 01:23:30;;;;;;;1.50;1.40;;;17.40;77.90;18.50;97719.00;;;;5062926;28;20186;-48
2023/10/21 01:25:56;;;;;;;1.60;1.50;;;17.40;77.90;18.50;97712.00;;;;5069689;28;20629;-48
2023/10/21 01:28:22;;;;;;;1.33;1.23;;;17.50;78.00;18.50;97720.00;;;;5068761;28;20270;-49
2023/10/21 01:30:48;;;;;;;1.63;1.40;;;17.50;78.00;18.50;97716.00;;;;5067923;28;20660;-49
2023/10/21 01:33:14;;;;;;;1.50;1.40;;;17.50;77.90;18.50;97714.00;;;;5067389;28;20207;-48
2023/10/21 01:35:39;;;;;;;1.70;1.50;;;17.50;78.00;18.50;97707.00;;;;5045767;28;20193;-49
2023/10/21 01:38:05;;;;;;;1.77;1.43;;;17.50;78.10;18.50;97729.00;;;;5071211;28;20268;-48
2023/10/21 01:40:31;;;;;;;1.37;1.27;;;17.50;78.20;18.50;97739.00;;;;5071615;28;20193;-53
2023/10/21 01:42:57;;;;;;;1.80;1.40;;;17.50;78.20;18.50;97737.00;;;;5064627;28;20248;-48
2023/10/21 01:45:23;;;;;;;1.30;1.20;;;17.50;78.20;18.50;97742.00;;;;5080837;28;20332;-48
2023/10/21 01:47:49;;;;;;;1.67;1.40;;;17.50;78.20;18.50;97743.00;;;;5047272;28;20200;-48
2023/10/21 01:50:14;;;;;;;1.37;1.27;;;17.50;78.20;18.50;97756.00;;;;5052465;28;20185;-48
2023/10/21 01:52:40;;;;;;;1.70;1.60;;;17.50;78.30;18.50;97752.00;;;;5067264;28;20212;-48
2023/10/21 01:55:08;;;;;;;1.10;1.00;;;17.50;78.40;18.50;97750.00;;;;5068649;28;20181;-48
2023/10/21 01:57:34;;;;;;;1.43;1.33;;;17.50;78.50;18.50;97754.00;;;;5059880;28;20604;-48
2023/10/21 02:00:01;;;;;;;1.50;1.40;;;17.50;78.40;18.50;97757.00;;;;5052298;28;20185;-47
2023/10/21 02:02:28;;;;;;;1.60;1.50;;;17.40;78.60;18.50;97766.00;;;;5059976;28;20206;-48
2023/10/21 02:04:53;;;;;;;1.83;1.50;;;17.50;78.60;18.50;97754.00;;;;5063844;28;20178;-48
2023/10/21 02:07:19;;;;;;;1.30;1.20;;;17.50;78.60;18.50;97783.00;;;;5053122;28;20247;-48
2023/10/21 02:09:45;;;;;;;1.40;1.30;;;17.50;78.50;18.50;97780.00;;;;5053216;28;20198;-47
2023/10/21 02:12:11;;;;;;;1.20;1.10;;;17.50;78.40;18.50;97771.00;;;;5063545;28;20311;-47
2023/10/21 02:14:37;;;;;;;2.17;1.30;;;17.50;78.30;18.50;97789.00;;;;5061408;28;20261;-48
2023/10/21 02:17:02;;;;;;;1.33;1.23;;;17.50;78.30;18.50;97786.00;;;;5054118;28;20177;-48
2023/10/21 02:19:28;;;;;;;1.40;1.30;;;17.50;78.30;18.50;97793.00;;;;5064613;28;20177;-47
2023/10/21 02:21:54;;;;;;;1.60;1.50;;;17.50;78.40;18.50;97792.00;;;;5066109;28;21814;-47
2023/10/21 02:24:20;;;;;;;1.10;1.10;;;17.50;78.40;18.50;97790.00;;;;5049526;28;20189;-48
2023/10/21 02:26:46;;;;;;;1.60;1.50;;;17.50;78.50;18.50;97792.00;;;;5062775;28;20187;-47
2023/10/21 02:29:11;;;;;;;1.50;1.40;;;17.50;78.40;18.50;97790.00;;;;5021340;28;20181;-47
2023/10/21 02:31:37;;;;;;;1.60;1.40;;;17.50;78.40;18.50;97800.00;;;;5061443;28;20202;-48
2023/10/21 02:34:03;;;;;;;1.17;1.17;;;17.50;78.40;18.50;97810.00;;;;5068604;28;20231;-48
2023/10/21 02:36:29;;;;;;;1.60;1.50;;;17.50;78.70;18.50;97812.00;;;;5062811;28;20627;-48
2023/10/21 02:38:55;;;;;;;1.40;1.30;;;17.40;78.90;18.50;97822.00;;;;5066791;28;20217;-48
2023/10/21 02:41:20;;;;;;;1.40;1.30;;;17.40;79.20;18.40;97824.00;;;;5057698;28;20209;-48
2023/10/21 02:43:47;;;;;;;1.40;1.30;;;17.40;79.20;18.40;97834.00;;;;5066032;28;20219;-48
2023/10/21 02:46:13;;;;;;;1.50;1.40;;;17.40;79.10;18.50;97841.00;;;;5053986;28;20237;-48
2023/10/21 02:48:39;;;;;;;2.03;1.33;;;17.50;79.00;18.50;97839.00;;;;5049320;28;20252;-48
2023/10/21 02:51:13;;;;;;;1.43;1.40;;;17.50;78.90;18.50;97848.00;;;;5069406;28;20197;-48
2023/10/21 02:53:40;;;;;;;1.00;1.00;;;17.50;78.80;18.50;97858.00;;;;5068859;28;20213;-48
2023/10/21 02:56:15;;;;;;;1.60;1.50;;;17.50;78.80;18.50;97865.00;;;;5071282;28;20579;-47
2023/10/21 02:58:41;;;;;;;1.30;1.20;;;17.50;78.70;18.50;97875.00;;;;5041328;28;20181;-48
2023/10/21 03:01:17;;;;;;;3.90;1.50;;;17.50;78.60;18.50;97874.00;;;;5066376;28;20554;-47
2023/10/21 03:03:44;;;;;;;3.53;1.50;;;17.50;78.80;18.50;97879.00;;;;5050915;28;20716;-48
2023/10/21 03:06:11;;;;;;;3.10;1.23;;;17.50;78.80;18.50;97888.00;;;;5052464;28;20239;-47
2023/10/21 03:08:37;;;;;;;2.17;1.20;;;17.50;78.80;18.50;97890.00;;;;5058347;28;20617;-47
2023/10/21 03:11:07;;;;;;;4.13;1.40;;;17.50;78.90;18.50;97898.00;;;;5055211;28;20779;-47
2023/10/21 03:13:34;;;;;;;1.73;1.60;;;17.50;78.90;18.50;97898.00;;;;5065892;28;20261;-46
2023/10/21 03:16:16;;;;;;;1.60;1.50;;;17.50;79.00;18.50;97892.00;;;;5055577;28;20189;-47
2023/10/21 03:18:42;;;;;;;2.67;1.83;;;17.60;79.00;18.50;97911.00;;;;5070475;28;20220;-47
2023/10/21 03:21:08;;;;;;;3.73;1.43;;;17.50;78.80;18.50;97927.00;;;;5071318;28;20209;-47
2023/10/21 03:23:34;;;;;;;4.37;1.73;;;17.60;78.80;18.50;97925.00;;;;5071550;28;20192;-48
2023/10/21 03:26:01;;;;;;;5.13;1.57;;;17.60;78.70;18.50;97932.00;;;;5066754;28;20204;-48
2023/10/21 03:28:27;;;;;;;3.80;1.63;;;17.60;78.70;18.50;97935.00;;;;5069372;28;20184;-48
2023/10/21 03:31:00;;;;;;;1.57;1.47;;;17.60;78.70;18.50;97938.00;;;;5063467;28;20192;-48
2023/10/21 03:33:27;;;;;;;3.63;1.50;;;17.60;78.60;18.50;97943.00;;;;5066267;28;20293;-48
2023/10/21 03:35:53;;;;;;;2.43;1.40;;;17.60;78.70;18.50;97949.00;;;;5070043;28;20176;-47
2023/10/21 03:38:20;;;;;;;2.03;1.70;;;17.50;78.50;18.50;97960.00;;;;5071099;28;20628;-48
2023/10/21 03:41:14;;;;;;;1.70;1.43;;;17.50;78.40;18.50;97956.00;;;;5069497;28;20181;-48
2023/10/21 03:43:40;;;;;;;1.57;1.47;;;17.50;78.40;18.50;97965.00;;;;5047629;28;20177;-48
2023/10/21 03:46:08;;;;;;;2.40;1.70;;;17.60;78.50;18.50;97969.00;;;;5048941;28;20268;-47
2023/10/21 03:48:34;;;;;;;1.70;1.60;;;17.50;78.30;18.50;97965.00;;;;5055447;28;20293;-48
2023/10/21 03:51:05;;;;;;;2.20;1.50;;;17.50;78.30;18.50;97975.00;;;;5053090;28;20687;-48
2023/10/21 03:53:34;;;;;;;2.87;1.40;;;17.50;78.30;18.50;97972.00;;;;5062146;28;20205;-48
2023/10/21 03:56:00;;;;;;;2.67;1.40;;;17.50;78.20;18.50;97986.00;;;;5052422;28;20317;-49
2023/10/21 03:58:26;;;;;;;1.40;1.30;;;17.50;78.20;18.50;97985.00;;;;5044587;28;20257;-47
2023/10/21 04:00:52;;;;;;;1.67;1.30;;;17.50;78.20;18.50;97987.00;;;;5050991;28;20229;-48
2023/10/21 04:03:19;;;;;;;1.97;1.53;;;17.50;78.30;18.50;97987.00;;;;5062417;28;20178;-48
2023/10/21 04:05:45;;;;;;;2.30;1.63;;;17.50;78.30;18.50;97992.00;;;;5068425;28;20193;-47
2023/10/21 04:08:11;;;;;;;1.97;1.50;;;17.50;78.30;18.50;98005.00;;;;5070257;28;20188;-47
2023/10/21 04:10:36;;;;;;;1.87;1.57;;;17.60;78.40;18.50;98007.00;;;;5070155;28;20235;-49
2023/10/21 04:13:03;;;;;;;1.50;1.40;;;17.50;78.40;18.50;98014.00;;;;5070039;28;20564;-47
2023/10/21 04:15:31;;;;;;;2.10;1.50;;;17.50;78.40;18.50;98028.00;;;;5065637;28;20176;-47
2023/10/21 04:17:57;;;;;;;1.87;1.57;;;17.50;78.40;18.50;98025.00;;;;5067834;28;20181;-51
2023/10/21 04:20:23;;;;;;;2.53;1.57;;;17.50;78.40;18.50;98039.00;;;;5069975;28;20208;-47
2023/10/21 04:22:49;;;;;;;4.00;1.63;;;17.50;78.40;18.50;98036.00;;;;5068852;28;20751;-47
2023/10/21 04:25:14;;;;;;;3.87;1.80;;;17.50;78.60;18.50;98041.00;;;;5069869;28;20187;-47
2023/10/21 04:27:40;;;;;;;7.10;1.80;;;17.50;78.60;18.50;98053.00;;;;5069653;28;20197;-48
2023/10/21 04:30:08;;;;;;;3.53;1.80;;;17.50;78.50;18.50;98044.00;;;;5069208;28;20184;-48
2023/10/21 04:32:33;;;;;;;5.70;2.00;;;17.50;78.50;18.50;98051.00;;;;5069511;28;20270;-47
2023/10/21 04:35:00;;;;;;;4.43;1.97;;;17.50;78.50;18.50;98046.00;;;;5069928;28;20184;-47
2023/10/21 04:37:27;;;;;;;2.60;1.70;;;17.50;78.50;18.50;98056.00;;;;5068616;28;20185;-48
2023/10/21 04:39:53;;;;;;;4.63;1.70;;;17.50;78.50;18.50;98050.00;;;;5069234;28;20192;-48
2023/10/21 04:42:19;;;;;;;7.03;1.97;;;17.50;78.50;18.50;98061.00;;;;5069405;28;20703;-47
2023/10/21 04:44:44;;;;;;;5.13;1.80;;;17.50;78.50;18.50;98062.00;;;;5069741;28;20188;-47
2023/10/21 04:47:11;;;;;;;4.03;2.13;;;17.50;78.50;18.50;98068.00;;;;5069584;28;20181;-47
2023/10/21 04:49:37;;;;;;;5.23;2.00;;;17.50;78.60;18.50;98075.00;;;;5068268;28;20215;-47
2023/10/21 04:52:04;;;;;;;8.13;2.10;;;17.50;78.50;18.50;98078.00;;;;5063096;28;20240;-47
2023/10/21 04:54:29;;;;;;;3.80;1.83;;;17.50;78.60;18.50;98073.00;;;;5082437;28;20217;-48
2023/10/21 04:56:55;;;;;;;3.50;1.80;;;17.50;78.50;18.50;98090.00;;;;5069179;28;20184;-48
2023/10/21 04:59:21;;;;;;;3.23;1.57;;;17.50;78.40;18.50;98092.00;;;;5068736;28;20182;-48
2023/10/21 05:01:47;;;;;;;4.37;1.80;;;17.50;78.50;18.50;98095.00;;;;5066846;28;20680;-48
2023/10/21 05:04:12;;;;;;;2.93;1.43;;;17.50;78.40;18.50;98112.00;;;;5069649;28;20192;-48
2023/10/21 05:06:38;;;;;;;3.10;1.70;;;17.50;78.40;18.50;98101.00;;;;5069024;28;20209;-48
2023/10/21 05:09:04;;;;;;;3.20;1.67;;;17.50;78.40;18.50;98115.00;;;;5068446;28;20705;-47
2023/10/21 05:11:30;;;;;;;3.43;1.57;;;17.50;78.40;18.50;98112.00;;;;5064097;28;20205;-47
2023/10/21 05:13:56;;;;;;;3.80;1.80;;;17.50;78.50;18.50;98114.00;;;;5068587;28;20217;-47
2023/10/21 05:16:22;;;;;;;6.40;2.00;;;17.50;78.40;18.50;98114.00;;;;5068066;28;20192;-48
2023/10/21 05:18:48;;;;;;;5.80;2.07;;;17.50;78.40;18.50;98128.00;;;;5071707;28;20200;-48
2023/10/21 05:21:14;;;;;;;4.60;1.80;;;17.50;78.30;18.50;98133.00;;;;5071174;28;20224;-47
2023/10/21 05:23:39;;;;;;;3.77;1.90;;;17.50;78.30;18.50;98145.00;;;;5073508;28;20769;-47
2023/10/21 05:26:05;;;;;;;1.70;1.60;;;17.50;78.30;18.50;98143.00;;;;5067564;28;20186;-47
2023/10/21 05:28:31;;;;;;;3.40;1.90;;;17.50;78.30;18.50;98137.00;;;;5067068;28;20678;-48
2023/10/21 05:30:57;;;;;;;2.67;1.60;;;17.50;78.20;18.50;98142.00;;;;5068302;28;20181;-48
2023/10/21 05:33:24;;;;;;;3.03;1.80;;;17.50;78.30;18.50;98155.00;;;;5068900;28;20807;-47
2023/10/21 05:35:49;;;;;;;3.03;1.70;;;17.50;78.20;18.50;98168.00;;;;5068976;28;20626;-47
2023/10/21 05:38:15;;;;;;;3.10;1.53;;;17.50;78.30;18.50;98166.00;;;;5067915;28;20180;-47
2023/10/21 05:40:41;;;;;;;2.27;1.67;;;17.50;78.30;18.50;98164.00;;;;5068751;28;20189;-47
2023/10/21 05:43:07;;;;;;;3.43;1.83;;;17.50;78.20;18.50;98175.00;;;;5069067;28;20566;-48
2023/10/21 05:45:34;;;;;;;2.20;1.70;;;17.50;78.30;18.50;98177.00;;;;5068585;28;20201;-47
2023/10/21 05:48:00;;;;;;;3.53;1.50;;;17.50;78.30;18.50;98180.00;;;;5068201;28;20284;-48
2023/10/21 05:50:26;;;;;;;3.50;1.60;;;17.50;78.20;18.50;98184.00;;;;5068335;28;20514;-48
2023/10/21 05:52:52;;;;;;;3.13;1.73;;;17.50;78.20;18.50;98186.00;;;;5068411;28;20570;-47
2023/10/21 05:55:18;;;;;;;4.23;1.63;;;17.50;78.20;18.50;98201.00;;;;5068258;28;20177;-47
2023/10/21 05:57:44;;;;;;;2.87;1.60;;;17.50;78.20;18.50;98199.00;;;;5066822;28;20554;-47
2023/10/21 06:00:11;;;;;;;3.80;1.73;;;17.50;78.20;18.50;98205.00;;;;5067521;28;20205;-47
2023/10/21 06:02:37;;;;;;;2.60;1.70;;;17.50;78.20;18.50;98217.00;;;;5068751;28;20229;-48
2023/10/21 06:05:05;;;;;;;4.00;1.70;;;17.50;78.20;18.50;98220.00;;;;5068597;28;20621;-48
2023/10/21 06:07:31;;;;;;;4.10;1.70;;;17.50;78.20;18.50;98220.00;;;;5068270;28;20582;-48
2023/10/21 06:09:57;;;;;;;3.03;1.70;;;17.50;78.20;18.50;98229.00;;;;5067526;28;20212;-48
2023/10/21 06:12:23;;;;;;;3.73;1.50;;;17.50;78.10;18.50;98230.00;;;;5068342;28;20634;-48
2023/10/21 06:14:50;;;;;;;2.47;1.40;;;17.50;78.10;18.50;98245.00;;;;5067826;28;20192;-48
2023/10/21 06:17:16;;;;;;;2.20;1.40;;;17.50;78.20;18.50;98248.00;;;;5068087;28;20184;-48
2023/10/21 06:19:44;;;;;;;2.37;1.80;;;17.50;78.20;18.50;98259.00;;;;5067630;28;20185;-48
2023/10/21 06:22:12;;;;;;;2.53;1.67;;;17.50;78.20;18.50;98266.00;;;;5067007;28;20240;-48
2023/10/21 06:24:39;;;;;;;2.43;1.60;;;17.50;78.10;18.50;98264.00;;;;5068221;28;20604;-48
2023/10/21 06:27:07;;;;;;;2.57;1.70;;;17.50;78.20;18.50;98274.00;;;;5068274;28;20194;-48
2023/10/21 06:29:34;;;;;;;2.13;1.50;;;17.50;78.20;18.50;98291.00;;;;5067807;28;20224;-48
2023/10/21 06:32:01;;;;;;;3.43;1.60;;;17.50;78.20;18.50;98292.00;;;;5068050;28;20575;-47
2023/10/21 06:34:26;;;;;;;3.90;1.77;;;17.50;78.30;18.50;98299.00;;;;5067946;28;20756;-47
2023/10/21 06:36:52;;;;;;;2.13;1.53;;;17.50;78.30;18.50;98297.00;;;;5049016;28;20228;-48
2023/10/21 06:39:18;;;;;;;3.00;1.77;;;17.50;78.40;18.50;98307.00;;;;5047084;28;20210;-48
2023/10/21 06:41:45;;;;;;;2.70;1.70;;;17.50;78.30;18.50;98304.00;;;;5046371;28;20616;-47
2023/10/21 06:44:11;;;;;;;2.53;1.70;;;17.60;78.50;18.50;98311.00;;;;5046756;28;20202;-48
2023/10/21 06:46:36;;;;;;;2.07;1.50;;;17.60;78.40;18.50;98325.00;;;;5047892;28;20578;-48
2023/10/21 06:49:03;;;;;;;2.43;1.70;;;17.70;78.40;18.60;98338.00;;;;5045820;28;20324;-47
2023/10/21 06:51:28;;;;;;;2.60;1.67;;;17.70;78.40;18.60;98336.00;;;;5052136;28;20206;-48
2023/10/21 06:53:55;;;;;;;2.17;1.50;;;17.80;78.40;18.60;98350.00;;;;5067411;28;20721;-47
2023/10/21 06:56:21;;;;;;;2.90;1.60;;;17.90;78.40;18.70;98351.00;;;;5067735;28;20181;-47
2023/10/21 06:58:48;;;;;;;2.60;1.67;;;17.90;78.30;18.70;98352.00;;;;5067362;28;20272;-48
2023/10/21 07:01:14;;;;;;;1.83;1.40;;;17.90;78.20;18.70;98368.00;;;;5067999;28;20293;-48
2023/10/21 07:03:40;;;;;;;1.53;1.23;;;18.00;78.30;18.80;98365.00;;;;5067803;28;20228;-47
2023/10/21 07:06:06;;;;;;;2.30;1.60;;;18.00;78.40;18.80;98383.00;;;;5068184;28;20181;-47
2023/10/21 07:08:34;;;;;;;2.00;1.53;;;18.10;78.40;18.90;98389.00;;;;5067249;28;20177;-49
2023/10/21 07:10:59;;;;;;;2.33;1.43;;;18.10;78.50;18.90;98386.00;;;;5061978;28;20200;-46
2023/10/21 07:13:25;;;;;;;4.90;1.57;;;18.10;78.50;18.90;98395.00;;;;5062814;28;20576;-47
2023/10/21 07:15:51;;;;;;;1.60;1.50;;;18.20;78.70;18.90;98393.00;;;;5066046;28;20174;-47
2023/10/21 07:18:17;;;;;;;3.17;1.50;;;18.10;78.70;19.00;98398.00;;;;5069018;28;20197;-48
2023/10/21 07:20:43;;;;;;;1.43;1.30;;;18.20;78.80;19.00;98407.00;;;;5055011;28;20284;-48
2023/10/21 07:23:12;;;;;;;2.67;1.40;;;18.20;78.80;19.00;98422.00;;;;5033088;28;20182;-48
2023/10/21 07:25:38;;;;;;;3.17;1.50;;;18.20;78.90;19.00;98433.00;;;;5067648;28;20181;-48
2023/10/21 07:28:05;;;;;;;2.17;1.40;;;18.20;78.90;19.00;98433.00;;;;5070911;28;20300;-48
2023/10/21 07:30:30;;;;;;;2.97;1.40;;;18.20;78.90;19.00;98436.00;;;;5070153;28;20837;-48
2023/10/21 07:32:56;;;;;;;2.50;1.40;;;18.20;78.90;19.10;98447.00;;;;5070197;28;20270;-48
2023/10/21 07:35:23;;;;;;;1.97;1.30;;;18.20;78.90;19.10;98449.00;;;;5070958;28;20177;-48
2023/10/21 07:37:49;;;;;;;2.57;1.50;;;18.30;79.00;19.10;98456.00;;;;5068561;28;20174;-47
2023/10/21 07:40:15;;;;;;;2.20;1.43;;;18.30;79.10;19.10;98464.00;;;;5060120;28;20634;-47
2023/10/21 07:42:41;;;;;;;1.60;1.50;;;18.30;79.00;19.10;98476.00;;;;5069335;28;20339;-47
2023/10/21 07:45:07;;;;;;;2.53;1.50;;;18.30;79.00;19.10;98474.00;;;;5058627;28;20716;-47
2023/10/21 07:47:37;;;;;;;2.20;1.20;;;18.30;79.00;19.20;98494.00;;;;5054213;28;20186;-47
2023/10/21 07:50:07;;;;;;;2.93;1.53;;;18.30;79.00;19.20;98492.00;;;;5045525;28;20206;-47
2023/10/21 07:52:36;;;;;;;3.70;1.50;;;18.30;79.20;19.20;98494.00;;;;5062867;28;20221;-47
2023/10/21 07:55:02;;;;;;;2.13;1.83;;;18.30;79.10;19.20;98503.00;;;;5070613;28;20177;-48
2023/10/21 07:57:29;;;;;;;1.93;1.60;;;18.30;79.10;19.20;98511.00;;;;5062118;28;20707;-48
2023/10/21 07:59:54;;;;;;;2.87;1.37;;;18.40;79.30;19.20;98512.00;;;;5068924;28;20178;-48
2023/10/21 08:02:21;;;;;;;4.23;1.50;;;18.40;79.20;19.20;98515.00;;;;5060811;28;20720;-47
2023/10/21 08:04:47;;;;;;;1.67;1.43;;;18.30;79.10;19.20;98525.00;;;;5066471;28;20667;-48
2023/10/21 08:07:12;;;;;;;2.87;1.47;;;18.40;79.20;19.20;98523.00;;;;5070009;28;20175;-48
2023/10/21 08:09:38;;;;;;;3.67;1.60;;;18.40;79.10;19.20;98531.00;;;;5062163;28;20174;-48
2023/10/21 08:12:04;;;;;;;2.67;1.53;;;18.40;79.10;19.20;98535.00;;;;5070370;28;20274;-48
2023/10/21 08:14:32;;;;;;;1.50;1.40;;;18.40;79.10;19.20;98542.00;;;;5058965;28;20214;-48
2023/10/21 08:17:00;;;;;;;2.00;1.50;;;18.40;79.10;19.20;98556.00;;;;5068199;28;20200;-48
2023/10/21 08:19:27;;;;;;;1.80;1.60;;;18.40;79.10;19.30;98547.00;;;;5069859;28;20186;-48
2023/10/21 08:21:53;;;;;;;2.23;1.47;;;18.40;79.10;19.30;98566.00;;;;5070293;28;20201;-49
2023/10/21 08:24:19;;;;;;;1.77;1.40;;;18.40;79.20;19.30;98566.00;;;;5070164;28;20596;-48
2023/10/21 08:26:45;;;;;;;3.47;1.43;;;18.50;79.20;19.30;98579.00;;;;5068300;28;20227;-48
2023/10/21 08:29:11;;;;;;;3.50;1.43;;;18.40;79.10;19.30;98582.00;;;;5069262;28;20174;-48
2023/10/21 08:31:37;;;;;;;2.90;1.43;;;18.50;79.20;19.30;98596.00;;;;5069646;28;20204;-49
2023/10/21 08:34:02;;;;;;;3.57;1.50;;;18.50;79.20;19.30;98590.00;;;;5068364;28;20699;-49
2023/10/21 08:36:29;;;;;;;4.00;1.53;;;18.40;79.10;19.30;98599.00;;;;5060427;28;20182;-48
2023/10/21 08:38:54;;;;;;;1.70;1.33;;;18.50;79.20;19.30;98598.00;;;;5069329;28;20260;-48
2023/10/21 08:41:20;;;;;;;5.10;1.50;;;18.50;79.10;19.30;98598.00;;;;5069678;28;20285;-50
2023/10/21 08:43:47;;;;;;;4.67;1.53;;;18.50;79.30;19.30;98600.00;;;;5069394;28;20182;-49
2023/10/21 08:46:17;;;;;;;9.93;2.03;;;18.50;79.30;19.30;98600.00;;;;5054703;28;20196;-49
2023/10/21 08:48:47;;;;;;;10.13;1.80;;;18.50;79.70;19.30;98612.00;;;;5064589;28;20202;-47
2023/10/21 08:51:17;;;;;;;6.70;2.10;;;18.50;79.80;19.30;98622.00;;;;5066854;28;20201;-48
2023/10/21 08:53:43;;;;;;;3.83;2.10;;;18.50;79.70;19.30;98625.00;;;;5050261;28;20595;-48
2023/10/21 08:56:11;;;;;;;6.80;1.90;;;18.50;79.80;19.30;98633.00;;;;5072880;28;20425;-48
2023/10/21 08:58:37;;;;;;;6.10;1.73;;;18.50;79.70;19.40;98567.00;;;;5071872;28;20595;-48
2023/10/21 09:01:02;;;;;;;3.07;1.60;;;18.50;79.60;19.40;98624.00;;;;5067643;28;20632;-47
2023/10/21 09:03:28;;;;;;;4.93;1.80;;;18.50;79.60;19.40;98634.00;;;;5068769;28;20189;-47
2023/10/21 09:06:10;;;;;;;11.07;1.87;;;18.60;79.80;19.40;98652.00;;;;5060957;28;20273;-47
2023/10/21 09:08:36;;;;;;;7.73;1.70;;;18.60;80.00;19.40;98648.00;;;;5074295;28;20184;-47
2023/10/21 09:11:08;;;;;;;7.57;1.50;;;18.60;79.80;19.40;98654.00;;;;5069222;28;20193;-47
2023/10/21 09:13:37;;;;;;;4.97;1.70;;;18.60;79.80;19.40;98653.00;;;;5059150;28;20231;-47
2023/10/21 09:16:26;;;;;;;5.20;1.60;;;18.60;79.90;19.40;98653.00;;;;5056509;28;20179;-47
2023/10/21 09:19:05;;;;;;;6.83;1.60;;;18.60;80.10;19.40;98651.00;;;;5068976;28;20205;-48
2023/10/21 09:21:42;;;;;;;2.80;1.67;;;18.60;80.00;19.40;98671.00;;;;5069220;28;20193;-48
2023/10/21 09:24:12;;;;;;;5.57;1.83;;;18.60;79.80;19.40;98657.00;;;;5069056;28;20189;-48
2023/10/21 09:26:42;;;;;;;4.57;1.63;;;18.60;79.80;19.40;98592.00;;;;5068711;28;20617;-48
2023/10/21 09:29:13;;;;;;;4.13;1.70;;;18.60;79.80;19.40;98664.00;;;;5068966;28;20189;-48
2023/10/21 09:31:43;;;;;;;2.83;1.27;;;18.50;79.70;19.40;98662.00;;;;5063091;28;20203;-48
2023/10/21 09:34:09;;;;;;;3.93;1.50;;;18.60;79.80;19.40;98664.00;;;;5071378;28;20213;-48
2023/10/21 09:36:42;;;;;;;6.60;1.50;;;18.60;79.70;19.40;98667.00;;;;5059201;28;20182;-48
2023/10/21 09:39:09;;;;;;;6.40;1.63;;;18.50;79.70;19.40;98667.00;;;;5064176;28;20182;-48
2023/10/21 09:41:36;;;;;;;3.67;1.73;;;18.60;80.60;19.40;98671.00;;;;5060887;28;20268;-48
2023/10/21 09:44:05;;;;;;;6.43;2.00;;;18.60;80.60;19.40;98674.00;;;;5055628;28;20268;-48
2023/10/21 09:46:31;;;;;;;5.47;1.73;;;18.60;80.50;19.40;98683.00;;;;5066989;28;20737;-48
2023/10/21 09:48:59;;;;;;;6.50;1.60;;;18.60;80.50;19.40;98673.00;;;;5064075;28;20190;-49
2023/10/21 09:51:25;;;;;;;7.13;1.90;;;18.60;80.70;19.40;98677.00;;;;5044461;28;20193;-49
2023/10/21 09:53:51;;;;;;;4.73;1.70;;;18.60;80.70;19.40;98680.00;;;;5046196;28;20253;-48
2023/10/21 09:56:17;;;;;;;3.90;1.67;;;18.60;80.60;19.40;98683.00;;;;5059361;28;20558;-48
2023/10/21 09:58:43;;;;;;;3.97;1.60;;;18.60;80.60;19.50;98701.00;;;;5067349;28;20186;-49
2023/10/21 10:01:10;;;;;;;7.27;1.60;;;18.60;80.50;19.40;98704.00;;;;5068374;28;20197;-50
2023/10/21 10:03:36;;;;;;;3.97;1.40;;;18.60;80.50;19.50;98694.00;;;;5067285;28;20170;-47
2023/10/21 10:06:05;;;;;;;4.90;1.50;;;18.60;80.60;19.50;98699.00;;;;5050380;28;20190;-46
2023/10/21 10:08:34;;;;;;;4.17;1.70;;;18.60;80.90;19.50;98717.00;;;;5066248;28;20255;-48
2023/10/21 10:11:10;;;;;;;5.77;1.57;;;18.60;81.30;19.50;98704.00;;;;5057824;28;20182;-48
2023/10/21 10:13:42;;;;;;;1.93;1.33;;;18.70;81.50;19.50;98708.00;;;;5068509;28;20208;-47
2023/10/21 10:16:24;;;;;;;3.33;1.57;;;18.60;81.50;19.20;98717.00;;;;5063582;28;20174;-47
2023/10/21 10:18:56;;;;;;;6.13;1.80;;;18.60;81.70;19.50;98705.00;;;;5063631;28;20193;-48
2023/10/21 10:21:22;;;;;;;3.80;1.37;;;18.60;81.90;19.50;98725.00;;;;5058175;28;20232;-48
2023/10/21 10:23:50;;;;;;;1.70;1.30;;;18.70;81.40;19.50;98728.00;;;;5064653;28;20267;-48
2023/10/21 10:26:27;;;;;;;2.37;1.57;;;18.70;81.10;19.50;98719.00;;;;5067592;28;20179;-47
2023/10/21 10:28:53;;;;;;;4.67;1.40;;;18.70;81.00;19.50;98723.00;;;;5045125;28;20174;-48
2023/10/21 10:31:19;;;;;;;3.33;1.70;;;18.70;80.80;19.50;98732.00;;;;5068121;28;20197;-49
2023/10/21 10:33:50;;;;;;;5.97;1.50;;;18.70;81.10;19.50;98729.00;;;;5065961;28;20693;-49
2023/10/21 10:36:26;;;;;;;2.30;1.30;;;18.70;81.20;19.50;98734.00;;;;5056501;28;20659;-48
2023/10/21 10:38:54;;;;;;;3.83;1.63;;;18.70;80.80;19.50;98732.00;;;;5051484;28;20189;-47
2023/10/21 10:41:20;;;;;;;2.80;1.47;;;18.70;80.60;19.50;98746.00;;;;5049212;28;20206;-47
2023/10/21 10:43:52;;;;;;;3.97;1.47;;;18.70;80.50;19.50;98737.00;;;;5068143;28;20680;-47
2023/10/21 10:46:22;;;;;;;3.03;1.30;;;18.80;80.50;19.50;98734.00;;;;5057480;28;20195;-48
2023/10/21 10:48:49;;;;;;;2.60;1.50;;;18.70;80.30;19.50;98743.00;;;;5066129;28;20185;-47
2023/10/21 10:51:15;;;;;;;4.17;1.33;;;18.70;80.30;19.50;98748.00;;;;5066497;28;20217;-48
2023/10/21 10:54:01;;;;;;;1.53;1.10;;;18.70;80.30;19.60;98749.00;;;;5073547;28;20220;-47